sensor_id;sensor_type;location;lat;lon;timestamp;P1;durP1;ratioP1;P2;durP2;ratioP2
78013;SDS011;67222;50.182;8.734;2023-12-07T05:32:00;9.95;;;5.18;;
78013;SDS011;67222;50.182;8.734;2023-12-07T05:34:25;9.13;;;4.83;;
78013;SDS011;67222;50.182;8.734;2023-12-07T05:36:50;11.50;;;5.23;;
78013;SDS011;67222;50.182;8.734;2023-12-07T05:39:15;10.20;;;5.07;;
78013;SDS011;67222;50.182;8.734;2023-12-07T05:41:42;7.93;;;5.03;;
78013;SDS011;67222;50.182;8.734;2023-12-07T05:44:07;10.43;;;5.68;;
78013;SDS011;67222;50.182;8.734;2023-12-07T05:46:34;11.17;;;5.80;;
78013;SDS011;67222;50.182;8.734;2023-12-07T05:49:00;14.57;;;6.32;;
78013;SDS011;67222;50.182;8.734;2023-12-07T05:51:25;14.17;;;6.70;;
78013;SDS011;67222;50.182;8.734;2023-12-07T05:53:51;11.87;;;5.80;;
78013;SDS011;67222;50.182;8.734;2023-12-07T05:56:18;11.45;;;5.80;;
78013;SDS011;67222;50.182;8.734;2023-12-07T05:58:44;12.88;;;5.68;;
78013;SDS011;67222;50.182;8.734;2023-12-07T06:01:10;14.75;;;5.40;;
78013;SDS011;67222;50.182;8.734;2023-12-07T06:03:35;12.77;;;5.53;;
78013;SDS011;67222;50.182;8.734;2023-12-07T06:06:00;10.17;;;5.67;;
78013;SDS011;67222;50.182;8.734;2023-12-07T06:08:26;10.47;;;5.33;;
78013;SDS011;67222;50.182;8.734;2023-12-07T06:10:51;12.10;;;6.18;;
78013;SDS011;67222;50.182;8.734;2023-12-07T06:13:16;9.50;;;5.53;;
78013;SDS011;67222;50.182;8.734;2023-12-07T06:15:42;11.57;;;5.53;;
78013;SDS011;67222;50.182;8.734;2023-12-07T06:18:07;13.00;;;6.53;;
78013;SDS011;67222;50.182;8.734;2023-12-07T06:20:33;11.82;;;5.35;;
78013;SDS011;67222;50.182;8.734;2023-12-07T06:22:59;12.25;;;5.75;;
78013;SDS011;67222;50.182;8.734;2023-12-07T06:25:25;18.23;;;6.20;;
78013;SDS011;67222;50.182;8.734;2023-12-07T06:27:50;13.43;;;6.20;;
78013;SDS011;67222;50.182;8.734;2023-12-07T06:30:15;15.38;;;5.85;;
78013;SDS011;67222;50.182;8.734;2023-12-07T06:32:41;12.45;;;6.05;;
78013;SDS011;67222;50.182;8.734;2023-12-07T06:35:07;10.88;;;6.00;;
78013;SDS011;67222;50.182;8.734;2023-12-07T06:37:33;9.43;;;5.32;;
78013;SDS011;67222;50.182;8.734;2023-12-07T06:39:59;11.00;;;4.95;;
78013;SDS011;67222;50.182;8.734;2023-12-07T06:42:25;11.40;;;5.05;;
78013;SDS011;67222;50.182;8.734;2023-12-07T06:44:50;10.95;;;6.22;;
78013;SDS011;67222;50.182;8.734;2023-12-07T06:47:16;11.60;;;5.43;;
78013;SDS011;67222;50.182;8.734;2023-12-07T06:49:41;11.95;;;6.13;;
78013;SDS011;67222;50.182;8.734;2023-12-07T06:52:07;10.73;;;5.15;;
78013;SDS011;67222;50.182;8.734;2023-12-07T06:54:33;12.65;;;5.93;;
78013;SDS011;67222;50.182;8.734;2023-12-07T06:56:58;9.20;;;5.72;;
78013;SDS011;67222;50.182;8.734;2023-12-07T06:59:24;12.55;;;6.07;;
78013;SDS011;67222;50.182;8.734;2023-12-07T07:01:49;11.90;;;5.67;;
78013;SDS011;67222;50.182;8.734;2023-12-07T07:04:14;10.43;;;6.03;;
78013;SDS011;67222;50.182;8.734;2023-12-07T07:06:41;11.50;;;5.53;;
78013;SDS011;67222;50.182;8.734;2023-12-07T07:09:06;9.20;;;5.13;;
78013;SDS011;67222;50.182;8.734;2023-12-07T07:11:31;9.40;;;5.03;;
78013;SDS011;67222;50.182;8.734;2023-12-07T07:13:57;12.30;;;6.22;;
78013;SDS011;67222;50.182;8.734;2023-12-07T07:16:22;13.47;;;6.13;;
78013;SDS011;67222;50.182;8.734;2023-12-07T07:18:47;12.10;;;5.53;;
78013;SDS011;67222;50.182;8.734;2023-12-07T07:21:13;11.82;;;5.82;;
78013;SDS011;67222;50.182;8.734;2023-12-07T07:23:38;11.33;;;5.30;;
78013;SDS011;67222;50.182;8.734;2023-12-07T07:26:03;12.30;;;5.40;;
78013;SDS011;67222;50.182;8.734;2023-12-07T07:28:29;10.45;;;5.47;;
78013;SDS011;67222;50.182;8.734;2023-12-07T07:30:54;9.60;;;5.03;;
78013;SDS011;67222;50.182;8.734;2023-12-07T07:33:19;9.20;;;5.27;;
78013;SDS011;67222;50.182;8.734;2023-12-07T07:35:45;10.98;;;5.57;;
78013;SDS011;67222;50.182;8.734;2023-12-07T07:38:10;10.47;;;5.37;;
78013;SDS011;67222;50.182;8.734;2023-12-07T07:40:35;10.95;;;6.15;;
78013;SDS011;67222;50.182;8.734;2023-12-07T07:43:01;14.63;;;6.40;;
78013;SDS011;67222;50.182;8.734;2023-12-07T07:45:26;12.67;;;5.73;;
78013;SDS011;67222;50.182;8.734;2023-12-07T07:47:51;12.50;;;6.60;;
78013;SDS011;67222;50.182;8.734;2023-12-07T07:50:17;13.93;;;6.30;;
78013;SDS011;67222;50.182;8.734;2023-12-07T07:52:42;10.38;;;5.45;;
78013;SDS011;67222;50.182;8.734;2023-12-07T07:55:08;10.50;;;5.17;;
78013;SDS011;67222;50.182;8.734;2023-12-07T07:57:33;9.75;;;6.07;;
78013;SDS011;67222;50.182;8.734;2023-12-07T07:59:58;11.98;;;6.00;;
78013;SDS011;67222;50.182;8.734;2023-12-07T08:02:24;12.30;;;6.20;;
78013;SDS011;67222;50.182;8.734;2023-12-07T08:04:50;14.73;;;6.20;;
78013;SDS011;67222;50.182;8.734;2023-12-07T08:07:16;11.27;;;5.68;;
78013;SDS011;67222;50.182;8.734;2023-12-07T08:09:42;13.30;;;6.55;;
78013;SDS011;67222;50.182;8.734;2023-12-07T08:12:07;12.73;;;6.50;;
78013;SDS011;67222;50.182;8.734;2023-12-07T08:14:35;19.42;;;6.50;;
78013;SDS011;67222;50.182;8.734;2023-12-07T08:17:00;12.68;;;5.88;;
78013;SDS011;67222;50.182;8.734;2023-12-07T08:19:25;12.83;;;6.10;;
78013;SDS011;67222;50.182;8.734;2023-12-07T08:21:51;12.40;;;6.47;;
78013;SDS011;67222;50.182;8.734;2023-12-07T08:24:16;12.57;;;5.80;;
78013;SDS011;67222;50.182;8.734;2023-12-07T08:26:41;13.37;;;6.73;;
78013;SDS011;67222;50.182;8.734;2023-12-07T08:29:06;15.43;;;6.80;;
78013;SDS011;67222;50.182;8.734;2023-12-07T08:31:32;11.60;;;6.37;;
78013;SDS011;67222;50.182;8.734;2023-12-07T08:33:57;14.43;;;7.17;;
78013;SDS011;67222;50.182;8.734;2023-12-07T08:36:22;13.20;;;6.73;;
78013;SDS011;67222;50.182;8.734;2023-12-07T08:38:48;15.37;;;7.53;;
78013;SDS011;67222;50.182;8.734;2023-12-07T08:41:13;15.20;;;7.80;;
78013;SDS011;67222;50.182;8.734;2023-12-07T08:43:39;18.27;;;8.10;;
78013;SDS011;67222;50.182;8.734;2023-12-07T08:46:04;16.40;;;7.50;;
78013;SDS011;67222;50.182;8.734;2023-12-07T08:48:32;14.73;;;7.43;;
78013;SDS011;67222;50.182;8.734;2023-12-07T08:50:57;16.23;;;8.00;;
78013;SDS011;67222;50.182;8.734;2023-12-07T08:53:22;14.23;;;7.20;;
78013;SDS011;67222;50.182;8.734;2023-12-07T08:55:48;21.40;;;9.00;;
78013;SDS011;67222;50.182;8.734;2023-12-07T08:58:13;16.42;;;8.35;;
78013;SDS011;67222;50.182;8.734;2023-12-07T09:00:38;16.63;;;8.80;;
78013;SDS011;67222;50.182;8.734;2023-12-07T09:03:04;18.43;;;9.10;;
78013;SDS011;67222;50.182;8.734;2023-12-07T09:05:29;24.02;;;10.20;;
78013;SDS011;67222;50.182;8.734;2023-12-07T09:07:57;17.05;;;8.20;;
78013;SDS011;67222;50.182;8.734;2023-12-07T09:10:23;22.05;;;9.85;;
78013;SDS011;67222;50.182;8.734;2023-12-07T09:12:48;21.80;;;10.07;;
78013;SDS011;67222;50.182;8.734;2023-12-07T09:15:13;25.27;;;10.73;;
78013;SDS011;67222;50.182;8.734;2023-12-07T09:17:39;21.88;;;10.23;;
78013;SDS011;67222;50.182;8.734;2023-12-07T09:20:06;25.20;;;10.50;;
78013;SDS011;67222;50.182;8.734;2023-12-07T09:22:36;21.27;;;10.35;;
78013;SDS011;67222;50.182;8.734;2023-12-07T09:25:02;22.77;;;10.50;;
78013;SDS011;67222;50.182;8.734;2023-12-07T09:27:27;23.98;;;10.27;;
78013;SDS011;67222;50.182;8.734;2023-12-07T09:29:53;22.85;;;10.55;;
78013;SDS011;67222;50.182;8.734;2023-12-07T09:32:18;21.50;;;9.97;;
78013;SDS011;67222;50.182;8.734;2023-12-07T09:34:43;21.73;;;9.67;;
78013;SDS011;67222;50.182;8.734;2023-12-07T09:37:09;23.10;;;10.37;;
78013;SDS011;67222;50.182;8.734;2023-12-07T09:39:34;23.05;;;11.98;;
78013;SDS011;67222;50.182;8.734;2023-12-07T09:42:00;23.75;;;10.27;;
78013;SDS011;67222;50.182;8.734;2023-12-07T09:44:26;24.80;;;11.50;;
78013;SDS011;67222;50.182;8.734;2023-12-07T09:46:51;26.52;;;10.30;;
78013;SDS011;67222;50.182;8.734;2023-12-07T09:49:17;23.15;;;9.85;;
78013;SDS011;67222;50.182;8.734;2023-12-07T09:51:43;26.35;;;11.80;;
78013;SDS011;67222;50.182;8.734;2023-12-07T09:54:10;21.92;;;10.43;;
78013;SDS011;67222;50.182;8.734;2023-12-07T09:56:36;23.20;;;10.27;;
78013;SDS011;67222;50.182;8.734;2023-12-07T09:59:01;23.17;;;10.65;;
78013;SDS011;67222;50.182;8.734;2023-12-07T10:01:30;21.00;;;10.23;;
78013;SDS011;67222;50.182;8.734;2023-12-07T10:07:01;22.40;;;10.55;;
78013;SDS011;67222;50.182;8.734;2023-12-07T10:09:27;21.13;;;10.55;;
78013;SDS011;67222;50.182;8.734;2023-12-07T10:12:02;19.73;;;8.80;;
78013;SDS011;67222;50.182;8.734;2023-12-07T10:14:29;19.65;;;10.48;;
78013;SDS011;67222;50.182;8.734;2023-12-07T10:16:54;21.27;;;10.88;;
78013;SDS011;67222;50.182;8.734;2023-12-07T10:19:21;24.40;;;10.73;;
78013;SDS011;67222;50.182;8.734;2023-12-07T10:21:56;21.35;;;10.27;;
78013;SDS011;67222;50.182;8.734;2023-12-07T10:24:22;20.98;;;9.63;;
78013;SDS011;67222;50.182;8.734;2023-12-07T10:26:51;21.30;;;9.90;;
78013;SDS011;67222;50.182;8.734;2023-12-07T10:29:17;20.92;;;9.52;;
78013;SDS011;67222;50.182;8.734;2023-12-07T10:31:44;20.75;;;10.45;;
78013;SDS011;67222;50.182;8.734;2023-12-07T10:34:09;21.90;;;10.97;;
78013;SDS011;67222;50.182;8.734;2023-12-07T10:36:34;23.40;;;10.30;;
78013;SDS011;67222;50.182;8.734;2023-12-07T10:39:00;23.90;;;10.25;;
78013;SDS011;67222;50.182;8.734;2023-12-07T10:41:26;21.60;;;10.48;;
78013;SDS011;67222;50.182;8.734;2023-12-07T10:43:58;21.67;;;10.18;;
78013;SDS011;67222;50.182;8.734;2023-12-07T10:46:25;19.92;;;10.23;;
78013;SDS011;67222;50.182;8.734;2023-12-07T10:48:54;20.35;;;10.50;;
78013;SDS011;67222;50.182;8.734;2023-12-07T10:51:29;24.10;;;10.05;;
78013;SDS011;67222;50.182;8.734;2023-12-07T10:53:59;21.50;;;11.07;;
78013;SDS011;67222;50.182;8.734;2023-12-07T10:56:28;18.02;;;9.23;;
78013;SDS011;67222;50.182;8.734;2023-12-07T10:58:57;21.95;;;9.75;;
78013;SDS011;67222;50.182;8.734;2023-12-07T11:01:24;20.75;;;10.10;;
78013;SDS011;67222;50.182;8.734;2023-12-07T11:03:51;23.17;;;11.38;;
78013;SDS011;67222;50.182;8.734;2023-12-07T11:06:21;19.17;;;9.98;;
78013;SDS011;67222;50.182;8.734;2023-12-07T11:08:47;21.17;;;10.13;;
78013;SDS011;67222;50.182;8.734;2023-12-07T11:11:20;24.20;;;11.55;;
78013;SDS011;67222;50.182;8.734;2023-12-07T11:13:58;24.20;;;11.32;;
78013;SDS011;67222;50.182;8.734;2023-12-07T11:16:29;19.48;;;10.73;;
78013;SDS011;67222;50.182;8.734;2023-12-07T11:18:55;24.48;;;10.50;;
78013;SDS011;67222;50.182;8.734;2023-12-07T11:21:21;23.60;;;10.75;;
78013;SDS011;67222;50.182;8.734;2023-12-07T11:23:46;26.20;;;11.60;;
78013;SDS011;67222;50.182;8.734;2023-12-07T11:26:12;22.27;;;10.20;;
78013;SDS011;67222;50.182;8.734;2023-12-07T11:28:38;25.77;;;10.77;;
78013;SDS011;67222;50.182;8.734;2023-12-07T11:31:05;25.88;;;11.57;;
78013;SDS011;67222;50.182;8.734;2023-12-07T11:33:31;32.40;;;12.27;;
78013;SDS011;67222;50.182;8.734;2023-12-07T11:38:25;33.58;;;12.52;;
78013;SDS011;67222;50.182;8.734;2023-12-07T11:40:50;31.70;;;12.50;;
78013;SDS011;67222;50.182;8.734;2023-12-07T11:43:21;34.87;;;13.10;;
78013;SDS011;67222;50.182;8.734;2023-12-07T11:46:01;28.35;;;12.20;;
78013;SDS011;67222;50.182;8.734;2023-12-07T11:48:27;29.10;;;12.00;;
78013;SDS011;67222;50.182;8.734;2023-12-07T11:51:00;30.40;;;11.73;;
78013;SDS011;67222;50.182;8.734;2023-12-07T11:53:27;29.88;;;12.38;;
78013;SDS011;67222;50.182;8.734;2023-12-07T11:55:55;26.55;;;10.85;;
78013;SDS011;67222;50.182;8.734;2023-12-07T11:58:22;24.67;;;10.40;;
78013;SDS011;67222;50.182;8.734;2023-12-07T12:00:50;24.95;;;10.07;;
78013;SDS011;67222;50.182;8.734;2023-12-07T12:03:17;24.10;;;11.07;;
78013;SDS011;67222;50.182;8.734;2023-12-07T12:05:42;25.00;;;10.85;;
78013;SDS011;67222;50.182;8.734;2023-12-07T12:08:09;22.65;;;9.85;;
78013;SDS011;67222;50.182;8.734;2023-12-07T12:10:35;24.35;;;9.60;;
78013;SDS011;67222;50.182;8.734;2023-12-07T12:13:03;24.03;;;10.07;;
78013;SDS011;67222;50.182;8.734;2023-12-07T12:15:29;27.65;;;11.55;;
78013;SDS011;67222;50.182;8.734;2023-12-07T12:17:58;25.42;;;10.10;;
78013;SDS011;67222;50.182;8.734;2023-12-07T12:20:24;21.95;;;9.75;;
78013;SDS011;67222;50.182;8.734;2023-12-07T12:22:50;26.20;;;10.27;;
78013;SDS011;67222;50.182;8.734;2023-12-07T12:25:26;18.30;;;8.38;;
78013;SDS011;67222;50.182;8.734;2023-12-07T12:28:02;27.90;;;10.13;;
78013;SDS011;67222;50.182;8.734;2023-12-07T12:30:29;22.42;;;10.82;;
78013;SDS011;67222;50.182;8.734;2023-12-07T12:32:55;23.13;;;10.10;;
78013;SDS011;67222;50.182;8.734;2023-12-07T12:35:21;26.58;;;10.63;;
78013;SDS011;67222;50.182;8.734;2023-12-07T12:37:47;27.55;;;10.80;;
78013;SDS011;67222;50.182;8.734;2023-12-07T12:40:17;21.02;;;9.48;;
78013;SDS011;67222;50.182;8.734;2023-12-07T12:42:44;25.25;;;10.43;;
78013;SDS011;67222;50.182;8.734;2023-12-07T12:45:14;26.15;;;10.82;;
78013;SDS011;67222;50.182;8.734;2023-12-07T12:47:40;24.02;;;10.25;;
78013;SDS011;67222;50.182;8.734;2023-12-07T12:50:08;24.08;;;10.48;;
78013;SDS011;67222;50.182;8.734;2023-12-07T12:52:34;25.27;;;9.98;;
78013;SDS011;67222;50.182;8.734;2023-12-07T12:55:01;27.63;;;10.45;;
78013;SDS011;67222;50.182;8.734;2023-12-07T12:57:27;20.60;;;8.57;;
78013;SDS011;67222;50.182;8.734;2023-12-07T12:59:53;20.42;;;9.77;;
78013;SDS011;67222;50.182;8.734;2023-12-07T13:02:19;20.75;;;9.85;;
78013;SDS011;67222;50.182;8.734;2023-12-07T13:04:45;20.52;;;9.38;;
78013;SDS011;67222;50.182;8.734;2023-12-07T13:07:11;22.38;;;9.65;;
78013;SDS011;67222;50.182;8.734;2023-12-07T13:09:37;22.77;;;9.18;;
78013;SDS011;67222;50.182;8.734;2023-12-07T13:12:03;26.50;;;10.55;;
78013;SDS011;67222;50.182;8.734;2023-12-07T13:14:28;21.98;;;9.65;;
78013;SDS011;67222;50.182;8.734;2023-12-07T13:16:53;19.85;;;9.88;;
78013;SDS011;67222;50.182;8.734;2023-12-07T13:19:19;22.23;;;9.13;;
78013;SDS011;67222;50.182;8.734;2023-12-07T13:21:45;20.27;;;9.10;;
78013;SDS011;67222;50.182;8.734;2023-12-07T13:24:10;25.52;;;10.15;;
78013;SDS011;67222;50.182;8.734;2023-12-07T13:26:38;23.10;;;9.95;;
78013;SDS011;67222;50.182;8.734;2023-12-07T13:29:03;23.00;;;10.27;;
78013;SDS011;67222;50.182;8.734;2023-12-07T13:31:29;21.10;;;9.02;;
78013;SDS011;67222;50.182;8.734;2023-12-07T13:33:54;23.95;;;9.90;;
78013;SDS011;67222;50.182;8.734;2023-12-07T13:36:20;20.58;;;8.98;;
78013;SDS011;67222;50.182;8.734;2023-12-07T13:38:48;19.75;;;9.13;;
78013;SDS011;67222;50.182;8.734;2023-12-07T13:41:14;21.40;;;8.67;;
78013;SDS011;67222;50.182;8.734;2023-12-07T13:43:39;21.27;;;9.82;;
78013;SDS011;67222;50.182;8.734;2023-12-07T13:46:06;19.08;;;9.02;;
78013;SDS011;67222;50.182;8.734;2023-12-07T13:48:32;17.95;;;8.95;;
78013;SDS011;67222;50.182;8.734;2023-12-07T13:50:57;19.17;;;8.77;;
78013;SDS011;67222;50.182;8.734;2023-12-07T13:53:22;24.87;;;9.73;;
78013;SDS011;67222;50.182;8.734;2023-12-07T13:55:48;21.97;;;9.77;;
78013;SDS011;67222;50.182;8.734;2023-12-07T13:58:16;21.15;;;9.32;;
78013;SDS011;67222;50.182;8.734;2023-12-07T14:00:41;24.40;;;10.07;;
78013;SDS011;67222;50.182;8.734;2023-12-07T14:03:10;20.52;;;9.50;;
78013;SDS011;67222;50.182;8.734;2023-12-07T14:05:35;18.53;;;9.23;;
78013;SDS011;67222;50.182;8.734;2023-12-07T14:08:00;22.27;;;9.23;;
78013;SDS011;67222;50.182;8.734;2023-12-07T14:10:27;17.85;;;9.32;;
78013;SDS011;67222;50.182;8.734;2023-12-07T14:12:53;18.43;;;8.67;;
78013;SDS011;67222;50.182;8.734;2023-12-07T14:15:18;20.70;;;10.20;;
78013;SDS011;67222;50.182;8.734;2023-12-07T14:17:43;20.60;;;9.87;;
78013;SDS011;67222;50.182;8.734;2023-12-07T14:20:10;22.42;;;9.50;;
78013;SDS011;67222;50.182;8.734;2023-12-07T14:22:36;23.08;;;9.98;;
78013;SDS011;67222;50.182;8.734;2023-12-07T14:25:03;21.70;;;10.05;;
78013;SDS011;67222;50.182;8.734;2023-12-07T14:27:29;20.08;;;9.63;;
78013;SDS011;67222;50.182;8.734;2023-12-07T14:29:54;21.33;;;10.00;;
78013;SDS011;67222;50.182;8.734;2023-12-07T14:32:19;23.50;;;10.20;;
78013;SDS011;67222;50.182;8.734;2023-12-07T14:34:45;23.45;;;9.05;;
78013;SDS011;67222;50.182;8.734;2023-12-07T14:37:10;21.83;;;9.35;;
78013;SDS011;67222;50.182;8.734;2023-12-07T14:39:35;21.07;;;9.03;;
78013;SDS011;67222;50.182;8.734;2023-12-07T14:42:01;19.38;;;9.23;;
78013;SDS011;67222;50.182;8.734;2023-12-07T14:44:29;20.70;;;9.35;;
78013;SDS011;67222;50.182;8.734;2023-12-07T14:46:54;22.07;;;9.27;;
78013;SDS011;67222;50.182;8.734;2023-12-07T14:49:20;18.15;;;8.25;;
78013;SDS011;67222;50.182;8.734;2023-12-07T14:51:46;19.08;;;9.35;;
78013;SDS011;67222;50.182;8.734;2023-12-07T14:54:15;17.65;;;8.23;;
78013;SDS011;67222;50.182;8.734;2023-12-07T14:56:42;17.33;;;7.72;;
78013;SDS011;67222;50.182;8.734;2023-12-07T14:59:09;20.40;;;8.95;;
78013;SDS011;67222;50.182;8.734;2023-12-07T15:01:37;19.88;;;8.75;;
78013;SDS011;67222;50.182;8.734;2023-12-07T15:04:03;17.00;;;8.23;;
78013;SDS011;67222;50.182;8.734;2023-12-07T15:06:30;19.38;;;8.70;;
78013;SDS011;67222;50.182;8.734;2023-12-07T15:08:56;18.08;;;8.00;;
78013;SDS011;67222;50.182;8.734;2023-12-07T15:11:22;21.33;;;8.80;;
78013;SDS011;67222;50.182;8.734;2023-12-07T15:13:47;20.73;;;9.07;;
78013;SDS011;67222;50.182;8.734;2023-12-07T15:16:13;19.13;;;8.55;;
78013;SDS011;67222;50.182;8.734;2023-12-07T15:18:38;16.53;;;8.27;;
78013;SDS011;67222;50.182;8.734;2023-12-07T15:21:10;20.13;;;9.25;;
78013;SDS011;67222;50.182;8.734;2023-12-07T15:23:42;17.25;;;8.32;;
78013;SDS011;67222;50.182;8.734;2023-12-07T15:26:08;24.80;;;9.52;;
78013;SDS011;67222;50.182;8.734;2023-12-07T15:28:37;18.30;;;8.60;;
78013;SDS011;67222;50.182;8.734;2023-12-07T15:31:04;15.98;;;7.40;;
78013;SDS011;67222;50.182;8.734;2023-12-07T15:33:30;17.77;;;7.50;;
78013;SDS011;67222;50.182;8.734;2023-12-07T15:35:57;13.88;;;6.38;;
78013;SDS011;67222;50.182;8.734;2023-12-07T15:38:22;14.00;;;6.40;;
78013;SDS011;67222;50.182;8.734;2023-12-07T15:40:48;12.07;;;5.83;;
78013;SDS011;67222;50.182;8.734;2023-12-07T15:43:13;13.32;;;6.35;;
78013;SDS011;67222;50.182;8.734;2023-12-07T15:45:38;8.93;;;5.03;;
78013;SDS011;67222;50.182;8.734;2023-12-07T15:48:04;9.53;;;5.70;;
78013;SDS011;67222;50.182;8.734;2023-12-07T15:50:30;9.32;;;5.00;;
78013;SDS011;67222;50.182;8.734;2023-12-07T15:52:55;13.80;;;5.83;;
78013;SDS011;67222;50.182;8.734;2023-12-07T15:55:20;12.63;;;6.50;;
78013;SDS011;67222;50.182;8.734;2023-12-07T15:57:46;11.30;;;5.70;;
78013;SDS011;67222;50.182;8.734;2023-12-07T16:00:11;9.47;;;5.53;;
78013;SDS011;67222;50.182;8.734;2023-12-07T16:02:37;12.45;;;5.80;;
78013;SDS011;67222;50.182;8.734;2023-12-07T16:05:02;9.73;;;5.87;;
78013;SDS011;67222;50.182;8.734;2023-12-07T16:09:56;10.20;;;5.47;;
78013;SDS011;67222;50.182;8.734;2023-12-07T16:12:21;10.87;;;5.37;;
78013;SDS011;67222;50.182;8.734;2023-12-07T16:14:47;10.90;;;5.67;;
78013;SDS011;67222;50.182;8.734;2023-12-07T16:17:12;9.67;;;5.10;;
78013;SDS011;67222;50.182;8.734;2023-12-07T16:19:37;8.60;;;4.17;;
78013;SDS011;67222;50.182;8.734;2023-12-07T16:22:03;9.13;;;4.47;;
78013;SDS011;67222;50.182;8.734;2023-12-07T16:24:29;9.00;;;4.28;;
78013;SDS011;67222;50.182;8.734;2023-12-07T16:26:55;8.13;;;4.28;;
78013;SDS011;67222;50.182;8.734;2023-12-07T16:29:21;8.43;;;4.18;;
78013;SDS011;67222;50.182;8.734;2023-12-07T16:31:46;7.83;;;4.27;;
78013;SDS011;67222;50.182;8.734;2023-12-07T16:34:12;7.70;;;4.38;;
78013;SDS011;67222;50.182;8.734;2023-12-07T16:36:37;9.18;;;4.82;;
78013;SDS011;67222;50.182;8.734;2023-12-07T16:39:02;10.77;;;4.87;;
78013;SDS011;67222;50.182;8.734;2023-12-07T16:41:29;8.65;;;4.78;;
78013;SDS011;67222;50.182;8.734;2023-12-07T16:43:59;8.55;;;4.22;;
78013;SDS011;67222;50.182;8.734;2023-12-07T16:46:24;10.95;;;4.63;;
78013;SDS011;67222;50.182;8.734;2023-12-07T16:48:51;14.30;;;4.68;;
78013;SDS011;67222;50.182;8.734;2023-12-07T16:51:16;10.48;;;4.97;;
78013;SDS011;67222;50.182;8.734;2023-12-07T16:53:42;7.95;;;4.53;;
78013;SDS011;67222;50.182;8.734;2023-12-07T16:56:08;9.23;;;4.93;;
78013;SDS011;67222;50.182;8.734;2023-12-07T16:58:34;8.38;;;4.53;;
78013;SDS011;67222;50.182;8.734;2023-12-07T17:00:59;9.87;;;4.80;;
78013;SDS011;67222;50.182;8.734;2023-12-07T17:03:24;11.80;;;5.20;;
78013;SDS011;67222;50.182;8.734;2023-12-07T17:05:51;9.70;;;4.68;;
78013;SDS011;67222;50.182;8.734;2023-12-07T17:08:16;9.50;;;4.47;;
78013;SDS011;67222;50.182;8.734;2023-12-07T17:10:45;9.82;;;4.80;;
78013;SDS011;67222;50.182;8.734;2023-12-07T17:13:11;8.35;;;4.45;;
78013;SDS011;67222;50.182;8.734;2023-12-07T17:15:37;9.52;;;4.10;;
78013;SDS011;67222;50.182;8.734;2023-12-07T17:18:02;11.53;;;4.73;;
78013;SDS011;67222;50.182;8.734;2023-12-07T17:20:27;9.50;;;4.55;;
78013;SDS011;67222;50.182;8.734;2023-12-07T17:22:53;9.95;;;5.47;;
78013;SDS011;67222;50.182;8.734;2023-12-07T17:25:18;9.80;;;4.78;;
78013;SDS011;67222;50.182;8.734;2023-12-07T17:27:44;8.63;;;4.78;;
78013;SDS011;67222;50.182;8.734;2023-12-07T17:30:09;10.00;;;5.33;;
78013;SDS011;67222;50.182;8.734;2023-12-07T17:32:35;10.23;;;5.43;;
78013;SDS011;67222;50.182;8.734;2023-12-07T17:35:00;8.63;;;5.30;;
78013;SDS011;67222;50.182;8.734;2023-12-07T17:37:26;8.33;;;4.43;;
78013;SDS011;67222;50.182;8.734;2023-12-07T17:39:51;11.33;;;5.80;;
78013;SDS011;67222;50.182;8.734;2023-12-07T17:42:19;11.35;;;5.43;;
78013;SDS011;67222;50.182;8.734;2023-12-07T17:44:45;9.30;;;5.07;;
78013;SDS011;67222;50.182;8.734;2023-12-07T17:47:10;11.23;;;6.47;;
78013;SDS011;67222;50.182;8.734;2023-12-07T17:49:36;11.33;;;5.73;;
78013;SDS011;67222;50.182;8.734;2023-12-07T17:52:01;9.50;;;4.95;;
78013;SDS011;67222;50.182;8.734;2023-12-07T17:54:26;11.02;;;5.78;;
78013;SDS011;67222;50.182;8.734;2023-12-07T17:56:52;10.25;;;5.20;;
78013;SDS011;67222;50.182;8.734;2023-12-07T17:59:17;10.60;;;5.47;;
78013;SDS011;67222;50.182;8.734;2023-12-07T18:01:45;12.30;;;5.88;;
78013;SDS011;67222;50.182;8.734;2023-12-07T18:04:11;10.98;;;5.88;;
78013;SDS011;67222;50.182;8.734;2023-12-07T18:06:36;10.57;;;5.47;;
78013;SDS011;67222;50.182;8.734;2023-12-07T18:09:02;9.98;;;5.75;;
78013;SDS011;67222;50.182;8.734;2023-12-07T18:11:27;11.27;;;5.55;;
78013;SDS011;67222;50.182;8.734;2023-12-07T18:13:53;11.65;;;5.70;;
78013;SDS011;67222;50.182;8.734;2023-12-07T18:16:19;9.65;;;5.28;;
78013;SDS011;67222;50.182;8.734;2023-12-07T18:18:45;10.30;;;4.72;;
78013;SDS011;67222;50.182;8.734;2023-12-07T18:21:10;8.30;;;4.47;;
78013;SDS011;67222;50.182;8.734;2023-12-07T18:23:35;8.93;;;4.05;;
78013;SDS011;67222;50.182;8.734;2023-12-07T18:26:01;11.98;;;4.95;;
78013;SDS011;67222;50.182;8.734;2023-12-07T18:28:26;8.32;;;4.18;;
78013;SDS011;67222;50.182;8.734;2023-12-07T18:30:52;7.10;;;3.60;;
78013;SDS011;67222;50.182;8.734;2023-12-07T18:33:17;7.73;;;3.83;;
78013;SDS011;67222;50.182;8.734;2023-12-07T18:35:42;9.05;;;4.57;;
78013;SDS011;67222;50.182;8.734;2023-12-07T18:38:08;9.43;;;3.83;;
78013;SDS011;67222;50.182;8.734;2023-12-07T18:40:33;8.48;;;4.25;;
78013;SDS011;67222;50.182;8.734;2023-12-07T18:43:00;10.35;;;4.53;;
78013;SDS011;67222;50.182;8.734;2023-12-07T18:45:25;8.30;;;4.28;;
78013;SDS011;67222;50.182;8.734;2023-12-07T18:47:51;10.00;;;4.83;;
78013;SDS011;67222;50.182;8.734;2023-12-07T18:50:17;6.82;;;4.30;;
78013;SDS011;67222;50.182;8.734;2023-12-07T18:52:43;8.73;;;4.30;;
78013;SDS011;67222;50.182;8.734;2023-12-07T18:55:08;6.53;;;4.47;;
78013;SDS011;67222;50.182;8.734;2023-12-07T18:57:33;10.93;;;5.00;;
78013;SDS011;67222;50.182;8.734;2023-12-07T18:59:59;8.67;;;5.20;;
78013;SDS011;67222;50.182;8.734;2023-12-07T19:02:24;10.25;;;4.68;;
78013;SDS011;67222;50.182;8.734;2023-12-07T19:04:49;8.50;;;4.80;;
78013;SDS011;67222;50.182;8.734;2023-12-07T19:07:15;11.02;;;5.15;;
78013;SDS011;67222;50.182;8.734;2023-12-07T19:09:40;11.18;;;5.38;;
78013;SDS011;67222;50.182;8.734;2023-12-07T19:12:06;9.20;;;4.83;;
78013;SDS011;67222;50.182;8.734;2023-12-07T19:14:31;10.83;;;5.70;;
78013;SDS011;67222;50.182;8.734;2023-12-07T19:16:56;10.60;;;5.10;;
78013;SDS011;67222;50.182;8.734;2023-12-07T19:19:22;11.50;;;5.53;;
78013;SDS011;67222;50.182;8.734;2023-12-07T19:21:47;8.65;;;5.38;;
78013;SDS011;67222;50.182;8.734;2023-12-07T19:24:15;10.38;;;5.72;;
78013;SDS011;67222;50.182;8.734;2023-12-07T19:26:41;10.93;;;5.70;;
78013;SDS011;67222;50.182;8.734;2023-12-07T19:29:06;11.05;;;6.00;;
78013;SDS011;67222;50.182;8.734;2023-12-07T19:31:32;10.73;;;5.80;;
78013;SDS011;67222;50.182;8.734;2023-12-07T19:33:57;9.40;;;5.50;;
78013;SDS011;67222;50.182;8.734;2023-12-07T19:36:22;12.43;;;5.97;;
78013;SDS011;67222;50.182;8.734;2023-12-07T19:38:48;10.83;;;6.00;;
78013;SDS011;67222;50.182;8.734;2023-12-07T19:41:13;10.73;;;5.10;;
78013;SDS011;67222;50.182;8.734;2023-12-07T19:43:38;10.88;;;5.35;;
78013;SDS011;67222;50.182;8.734;2023-12-07T19:46:03;12.80;;;6.13;;
78013;SDS011;67222;50.182;8.734;2023-12-07T19:48:29;13.20;;;6.20;;
78013;SDS011;67222;50.182;8.734;2023-12-07T19:50:54;13.83;;;6.77;;
78013;SDS011;67222;50.182;8.734;2023-12-07T19:53:19;12.43;;;5.72;;
78013;SDS011;67222;50.182;8.734;2023-12-07T19:55:45;12.73;;;6.00;;
78013;SDS011;67222;50.182;8.734;2023-12-07T19:58:10;13.63;;;6.32;;
78013;SDS011;67222;50.182;8.734;2023-12-07T20:00:36;13.30;;;7.13;;
78013;SDS011;67222;50.182;8.734;2023-12-07T20:03:01;14.32;;;6.63;;
78013;SDS011;67222;50.182;8.734;2023-12-07T20:05:27;12.43;;;6.37;;